^^
Grace C. Lehan Memorial Weather Station Historical Data
Daily Summary for May 26, 2021 Units:  Metric    English   Both
Daily Weekly Monthly Yearly
  High: Low: Average:
Temperature: 0.3 °C -2.4 °C -1.4 °C
Dew Point: -2.3 °C -8.6 °C -5.5 °C
Humidity: 93% 57% 75%
Wind Speed: 4km/h 0km/h 0.3km/h
Wind Gust: 16.1km/h - -
Wind- - ESE
Pressure: 1018.5 hPa 1010.7 hPa -
Precipitation: 0 mm    
 
 
Tabular Data for May 26, 2021
Time Temperature Dew Point Pressure Wind Wind Speed Wind Gust Humidity Rainfall Rate (Hourly) solar
00:04 -1 °C -8.4 °C 1017.5 hPa ENE 1.6 km/h 9.7 km/h 57% 0 mm 0 W/m2
00:09 -1.1 °C -8.5 °C 1017.5 hPa NE 0.6 km/h 9.7 km/h 57% 0 mm 0 W/m2
00:14 -1.1 °C -8.5 °C 1017.8 hPa Calm   9.7 km/h 57% 0 mm 0 W/m2
00:19 -1.1 °C -8.6 °C 1017.8 hPa NE 0.2 km/h 9.7 km/h 57% 0 mm 0 W/m2
00:24 -1.1 °C -8.6 °C 1017.8 hPa NE 0.3 km/h 9.7 km/h 57% 0 mm 0 W/m2
00:29 -1.2 °C -8.6 °C 1017.8 hPa Calm   9.7 km/h 57.2% 0 mm 0 W/m2
00:34 -1.2 °C -8.4 °C 1018.2 hPa Calm   9.7 km/h 58% 0 mm 0 W/m2
00:39 -1.2 °C -8.4 °C 1018.2 hPa Calm     58% 0 mm 0 W/m2
00:44 -1.2 °C -8.4 °C 1017.8 hPa Calm     58% 0 mm 0 W/m2
00:49 -1.2 °C -8.4 °C 1017.8 hPa Calm     58% 0 mm 0 W/m2
00:54 -1.2 °C -8.4 °C 1018.2 hPa Calm     58% 0 mm 0 W/m2
00:59 -1.3 °C -8.4 °C 1018.2 hPa Calm     58% 0 mm 0 W/m2
01:04 -1.3 °C -8.4 °C 1018.2 hPa Calm     58% 0 mm 0 W/m2
01:09 -1.3 °C -8.4 °C 1018.2 hPa Calm   1.6 km/h 58.2% 0 mm 0 W/m2
01:14 -1.3 °C -8.4 °C 1018.2 hPa NE 0.2 km/h 1.6 km/h 58.5% 0 mm 0 W/m2
01:19 -1.3 °C -8.4 °C 1018.5 hPa Calm   1.6 km/h 58.3% 0 mm 0 W/m2
01:24 -1.3 °C -8.3 °C 1018.5 hPa Calm   1.6 km/h 59% 0 mm 0 W/m2
01:29 -1.3 °C -8.3 °C 1018.5 hPa Calm   1.6 km/h 59% 0 mm 0 W/m2
01:34 -1.3 °C -8.3 °C 1018.5 hPa Calm   1.6 km/h 59% 0 mm 0 W/m2
01:39 -1.4 °C -8.3 °C 1018.5 hPa Calm     59% 0 mm 0 W/m2
01:44 -1.4 °C -8.3 °C 1018.2 hPa Calm     59% 0 mm 0 W/m2
01:49 -1.4 °C -8.3 °C 1018.2 hPa Calm     59% 0 mm 0 W/m2
01:54 -1.4 °C -8.3 °C 1018.2 hPa Calm     59% 0 mm 0 W/m2
01:59 -1.4 °C -8.3 °C 1018.2 hPa Calm     59% 0 mm 0 W/m2
02:04 -1.3 °C -8.3 °C 1018.5 hPa Calm     59% 0 mm 0 W/m2
02:09 -1.4 °C -8.3 °C 1018.5 hPa Calm     59% 0 mm 0 W/m2
02:14 -1.4 °C -8.3 °C 1018.2 hPa NE 0.5 km/h 4.8 km/h 59% 0 mm 0 W/m2
02:19 -1.4 °C -8.4 °C 1018.2 hPa NE 0.3 km/h 4.8 km/h 59% 0 mm 0 W/m2
02:24 -1.4 °C -8.4 °C 1018.2 hPa Calm   4.8 km/h 59% 0 mm 0 W/m2
02:29 -1.4 °C -8.4 °C 1018.2 hPa Calm   4.8 km/h 59% 0 mm 0 W/m2
02:34 -1.4 °C -8.4 °C 1018.5 hPa Calm   4.8 km/h 59% 0 mm 0 W/m2
02:39 -1.4 °C -8.3 °C 1018.5 hPa Calm   1.6 km/h 59.5% 0 mm 0 W/m2
02:44 -1.5 °C -8.2 °C 1018.2 hPa NE 0.5 km/h 4.8 km/h 60% 0 mm 0 W/m2
02:49 -1.5 °C -8.3 °C 1018.2 hPa NE 0.2 km/h 4.8 km/h 59.8% 0 mm 0 W/m2
02:54 -1.5 °C -8.3 °C 1017.8 hPa Calm   4.8 km/h 60% 0 mm 0 W/m2
02:59 -1.6 °C -8.3 °C 1017.8 hPa Calm   4.8 km/h 60% 0 mm 0 W/m2
03:04 -1.6 °C -8.3 °C 1018.2 hPa Calm   4.8 km/h 60% 0 mm 0 W/m2
03:09 -1.6 °C -8.3 °C 1018.2 hPa Calm     60% 0 mm 0 W/m2
03:14 -1.6 °C -8.3 °C 1017.8 hPa Calm     60% 0 mm 0 W/m2
03:19 -1.6 °C -8.4 °C 1017.8 hPa Calm     59.7% 0 mm 0 W/m2
03:24 -1.6 °C -8.4 °C 1018.2 hPa Calm     59.9% 0 mm 0 W/m2
03:29 -1.6 °C -8.4 °C 1018.2 hPa Calm     60% 0 mm 0 W/m2
03:34 -1.7 °C -8.4 °C 1018.2 hPa Calm     60% 0 mm 0 W/m2
03:39 -1.7 °C -8.3 °C 1017.8 hPa Calm     60.6% 0 mm 0 W/m2
03:44 -1.7 °C -8.4 °C 1017.8 hPa Calm     60% 0 mm 0 W/m2
03:49 -1.7 °C -8.4 °C 1017.5 hPa Calm     60% 0 mm 0 W/m2
03:54 -1.7 °C -8.4 °C 1017.8 hPa Calm     60% 0 mm 0 W/m2
03:59 -1.8 °C -8.3 °C 1017.8 hPa Calm   3.2 km/h 60.8% 0 mm 0 W/m2
04:00 -1.8 °C -8.3 °C 1017.8 hPa Calm   3.2 km/h 61% 0 mm 0 W/m2
04:09 -1.9 °C -8.4 °C 1017.5 hPa Calm     61% 0 mm 0 W/m2
04:14 -1.9 °C -8.4 °C 1017.8 hPa NE 0.2 km/h 3.2 km/h 61% 0 mm 0 W/m2
04:19 -2 °C -8.4 °C 1017.8 hPa Calm   3.2 km/h 61.6% 0 mm 0 W/m2
04:24 -2.1 °C -8.4 °C 1017.5 hPa Calm   3.2 km/h 62% 0 mm 0 W/m2
04:29 -2.2 °C -8.4 °C 1017.5 hPa Calm   3.2 km/h 62.4% 0 mm 0 W/m2
04:34 -2.2 °C -8.3 °C 1017.5 hPa Calm   3.2 km/h 63% 0 mm 0 W/m2
04:39 -2.3 °C -8.3 °C 1017.2 hPa Calm   1.6 km/h 63% 0 mm 0 W/m2
04:44 -2.3 °C -8.3 °C 1017.2 hPa Calm   1.6 km/h 63.1% 0 mm 0 W/m2
04:49 -2.3 °C -8.2 °C 1017.2 hPa Calm   1.6 km/h 64% 0 mm 0 W/m2
04:54 -2.3 °C -8.2 °C 1017.5 hPa Calm   1.6 km/h 64% 0 mm 0 W/m2
04:59 -2.3 °C -8.2 °C 1017.2 hPa NE 0.2 km/h 3.2 km/h 64% 0 mm 0 W/m2
05:04 -2.3 °C -8.2 °C 1017.2 hPa Calm   3.2 km/h 64% 0 mm 0 W/m2
05:09 -2.3 °C -8.1 °C 1017.5 hPa Calm     64.3% 0 mm 0 W/m2
05:14 -2.3 °C -8.2 °C 1017.5 hPa Calm   1.6 km/h 64% 0 mm 0 W/m2
05:19 -2.3 °C -8.1 °C 1017.5 hPa Calm   1.6 km/h 64.6% 0 mm 0 W/m2
05:24 -2.3 °C -7.9 °C 1017.2 hPa Calm   1.6 km/h 65% 0 mm 0 W/m2
05:29 -2.3 °C -7.9 °C 1017.2 hPa Calm   1.6 km/h 65% 0 mm 0 W/m2
05:34 -2.3 °C -7.9 °C 1017.2 hPa Calm   4.8 km/h 65% 0 mm 0 W/m2
05:39 -2.3 °C -8 °C 1016.8 hPa NE 1.1 km/h 6.4 km/h 65% 0 mm 0 W/m2
05:44 -2.3 °C -8 °C 1016.8 hPa NE 0.2 km/h 6.4 km/h 65% 0 mm 0 W/m2
05:49 -2.4 °C -8.1 °C 1016.8 hPa Calm   6.4 km/h 65% 0 mm 0 W/m2
05:54 -2.4 °C -7.9 °C 1016.5 hPa NE 0.6 km/h 6.4 km/h 65.5% 0 mm 0 W/m2
05:59 -2.4 °C -7.9 °C 1016.8 hPa NE 0.2 km/h 6.4 km/h 66% 0 mm 0 W/m2
06:04 -2.4 °C -7.9 °C 1016.8 hPa Calm   6.4 km/h 66% 0 mm 0 W/m2
06:09 -2.4 °C -7.9 °C 1016.8 hPa NE 0.5 km/h 4.8 km/h 66% 0 mm 0 W/m2
06:14 -2.4 °C -7.9 °C 1016.8 hPa NE 1 km/h 6.4 km/h 66% 0 mm 0 W/m2
06:19 -2.4 °C -7.8 °C 1016.8 hPa NE 1.3 km/h 6.4 km/h 66% 0 mm 0 W/m2
06:24 -2.3 °C -7.8 °C 1016.8 hPa NE 0.5 km/h 6.4 km/h 66% 0 mm 0 W/m2
06:29 -2.3 °C -7.8 °C 1016.8 hPa NE 0.2 km/h 6.4 km/h 66% 0 mm 0 W/m2
06:34 -2.3 °C -7.8 °C 1016.8 hPa NE 0.3 km/h 6.4 km/h 66% 0 mm 0 W/m2
06:39 -2.3 °C -7.7 °C 1016.8 hPa NE 0.3 km/h 4.8 km/h 66.4% 0 mm 0 W/m2
06:44 -2.3 °C -7.7 °C 1017.2 hPa NE 0.5 km/h 8 km/h 66.7% 0 mm 0 W/m2
06:49 -2.3 °C -7.6 °C 1017.2 hPa NE 1 km/h 8 km/h 67% 0 mm 0 W/m2
06:54 -2.3 °C -7.6 °C 1017.2 hPa NE 0.5 km/h 8 km/h 67% 0 mm 0 W/m2
06:59 -2.3 °C -7.6 °C 1017.5 hPa NE 0.5 km/h 8 km/h 67% 0 mm 0 W/m2
07:04 -2.3 °C -7.6 °C 1017.5 hPa Calm   8 km/h 67% 0 mm 0 W/m2
07:09 -2.3 °C -7.6 °C 1017.5 hPa NE 0.2 km/h 3.2 km/h 67% 0 mm 0 W/m2
07:14 -2.4 °C -7.7 °C 1017.5 hPa NE 0.3 km/h 3.2 km/h 67% 0 mm 0 W/m2
07:19 -2.4 °C -7.7 °C 1017.2 hPa NE 1.3 km/h 6.4 km/h 67% 0 mm 7 W/m2
07:24 -2.4 °C -7.7 °C 1017.2 hPa NE 1.4 km/h 6.4 km/h 67% 0 mm 11 W/m2
07:29 -2.4 °C -7.7 °C 1017.2 hPa NE 0.3 km/h 6.4 km/h 67% 0 mm 12 W/m2
07:34 -2.4 °C -7.7 °C 1017.5 hPa Calm   6.4 km/h 67% 0 mm 19 W/m2
07:39 -2.4 °C -7.7 °C 1017.2 hPa NNW 1.9 km/h 14.5 km/h 67.3% 0 mm 23 W/m2
07:44 -2.4 °C -7.7 °C 1017.2 hPa NE 1.4 km/h 14.5 km/h 67% 0 mm 26 W/m2
07:49 -2.4 °C -7.7 °C 1017.2 hPa North 0.8 km/h 14.5 km/h 67.2% 0 mm 28 W/m2
07:54 -2.3 °C -7.6 °C 1017.2 hPa North 0.2 km/h 14.5 km/h 67.3% 0 mm 33 W/m2
07:59 -2.3 °C -7.6 °C 1017.2 hPa North 2.9 km/h 16.1 km/h 67% 0 mm 39 W/m2
08:09 -2.3 °C -7.6 °C 1017.2 hPa NE 1.1 km/h 6.4 km/h 67% 0 mm 49 W/m2
08:14 -2.3 °C -7.7 °C 1017.5 hPa NNE 2.7 km/h 9.7 km/h 66.5% 0 mm 54 W/m2
08:19 -2.2 °C -7.7 °C 1017.5 hPa North 1.8 km/h 11.3 km/h 66.3% 0 mm 58 W/m2
08:24 -2.2 °C -7.7 °C 1017.5 hPa NE 1.3 km/h 11.3 km/h 66% 0 mm 58 W/m2
08:29 -2.1 °C -7.6 °C 1017.2 hPa NE 0.8 km/h 11.3 km/h 66% 0 mm 60 W/m2
08:34 -2.1 °C -7.6 °C 1017.2 hPa NE 2.9 km/h 11.3 km/h 66% 0 mm 67 W/m2
08:39 -2.1 °C -7.6 °C 1017.5 hPa NE 2.7 km/h 9.7 km/h 66% 0 mm 70 W/m2
08:44 -2.1 °C -7.6 °C 1017.5 hPa NE 1.3 km/h 9.7 km/h 66% 0 mm 77 W/m2
08:49 -2 °C -7.5 °C 1017.5 hPa NE 1.4 km/h 9.7 km/h 66% 0 mm 91 W/m2
08:54 -1.9 °C -7.4 °C 1017.2 hPa ENE 1.8 km/h 9.7 km/h 66% 0 mm 111 W/m2
08:59 -1.8 °C -7.3 °C 1017.2 hPa NE 2.1 km/h 9.7 km/h 66% 0 mm 111 W/m2
09:04 -1.8 °C -7.3 °C 1017.2 hPa NE 2.4 km/h 9.7 km/h 66% 0 mm 113 W/m2
09:09 -1.7 °C -7.2 °C 1017.2 hPa NE 1.4 km/h 8 km/h 66% 0 mm 130 W/m2
09:14 -1.6 °C -7.1 °C 1017.5 hPa North 1.9 km/h 11.3 km/h 66% 0 mm 149 W/m2
09:19 -1.4 °C -7.1 °C 1017.5 hPa NNW 4 km/h 11.3 km/h 65.4% 0 mm 128 W/m2
09:24 -1.3 °C -7.1 °C 1017.8 hPa North 1.8 km/h 11.3 km/h 65% 0 mm 137 W/m2
09:29 -1.2 °C -6.9 °C 1017.8 hPa NNE 0.8 km/h 11.3 km/h 65% 0 mm 142 W/m2
09:34 -1.1 °C -6.9 °C 1018.2 hPa NNE 0.3 km/h 11.3 km/h 64.8% 0 mm 127 W/m2
09:39 -1.1 °C -7 °C 1018.2 hPa NNE 1.6 km/h 9.7 km/h 64% 0 mm 98 W/m2
09:44 -1.1 °C -7 °C 1018.2 hPa NNE 1 km/h 9.7 km/h 64% 0 mm 107 W/m2
09:49 -1 °C -6.9 °C 1018.2 hPa NNE 1.8 km/h 9.7 km/h 64% 0 mm 123 W/m2
09:54 -1 °C -6.9 °C 1018.2 hPa NE 0.8 km/h 9.7 km/h 64.2% 0 mm 167 W/m2
09:59 -0.9 °C -6.7 °C 1018.2 hPa NNE 1.1 km/h 9.7 km/h 65% 0 mm 169 W/m2
10:04 -0.8 °C -6.6 °C 1017.8 hPa North 3.1 km/h 14.5 km/h 64.6% 0 mm 162 W/m2
10:09 -0.8 °C -6.8 °C 1017.8 hPa ENE 1.4 km/h 14.5 km/h 63.8% 0 mm 160 W/m2
10:14 -0.8 °C -6.6 °C 1017.8 hPa NNE 0.6 km/h 14.5 km/h 64.7% 0 mm 151 W/m2
10:19 -0.7 °C -6.6 °C 1017.8 hPa NNE 1 km/h 14.5 km/h 64.5% 0 mm 156 W/m2
10:24 -0.6 °C -6.6 °C 1017.5 hPa North 0.6 km/h 14.5 km/h 64% 0 mm 141 W/m2
10:29 -0.6 °C -6.6 °C 1017.5 hPa NNW 1 km/h 14.5 km/h 63.7% 0 mm 132 W/m2
10:34 -0.6 °C -6.6 °C 1017.2 hPa NNE 0.8 km/h 14.5 km/h 63.8% 0 mm 135 W/m2
10:39 -0.5 °C -6.5 °C 1017.2 hPa NE 0.3 km/h 6.4 km/h 63.9% 0 mm 146 W/m2
10:44 -0.4 °C -6.6 °C 1017.2 hPa NE 0.8 km/h 8 km/h 63.5% 0 mm 172 W/m2
10:49 -0.5 °C -6.7 °C 1017.2 hPa NE 1.1 km/h 8 km/h 63% 0 mm 174 W/m2
10:54 -0.5 °C -6.6 °C 1017.2 hPa NNE 0.8 km/h 8 km/h 63.3% 0 mm 167 W/m2
10:59 -0.4 °C -6.6 °C 1017.2 hPa NNE 0.3 km/h 8 km/h 63.2% 0 mm 151 W/m2
11:04 -0.4 °C -6.6 °C 1016.8 hPa ENE 0.6 km/h 8 km/h 63% 0 mm 162 W/m2
11:09 -0.6 °C -6.7 °C 1017.2 hPa ENE 0.8 km/h 6.4 km/h 63% 0 mm 160 W/m2
11:14 -0.6 °C -6.7 °C 1017.2 hPa ENE 1.1 km/h 6.4 km/h 63% 0 mm 132 W/m2
11:19 -0.4 °C -6.6 °C 1017.2 hPa Calm   6.4 km/h 63% 0 mm 128 W/m2
11:24 -0.3 °C -6.5 °C 1017.2 hPa Calm   6.4 km/h 63% 0 mm 105 W/m2
11:29 -0.2 °C -6.4 °C 1016.8 hPa Calm   6.4 km/h 63% 0 mm 107 W/m2
11:34 -0.1 °C -6.4 °C 1016.8 hPa Calm   6.4 km/h 62.3% 0 mm 107 W/m2
11:39 0 °C -6.4 °C 1016.8 hPa Calm     62% 0 mm 111 W/m2
11:44 0 °C -6.4 °C 1016.5 hPa Calm     61.8% 0 mm 111 W/m2
11:49 0.1 °C -6.4 °C 1016.5 hPa Calm     61.5% 0 mm 102 W/m2
11:54 0.1 °C -6.5 °C 1016.5 hPa Calm     61.1% 0 mm 86 W/m2
11:59 0.1 °C -6.5 °C 1016.1 hPa Calm     61% 0 mm 83 W/m2
12:04 0.2 °C -6.6 °C 1015.8 hPa Calm     60% 0 mm 84 W/m2
12:09 0.2 °C -6.4 °C 1015.8 hPa Calm     61% 0 mm 88 W/m2
12:14 0.3 °C -6.5 °C 1015.8 hPa Calm     60.4% 0 mm 81 W/m2
12:19 0.3 °C -6.6 °C 1015.8 hPa ENE 0.2 km/h 3.2 km/h 60% 0 mm 60 W/m2
12:24 0.3 °C -6.6 °C 1015.8 hPa Calm   3.2 km/h 60% 0 mm 62 W/m2
12:29 0.2 °C -6.6 °C 1015.8 hPa Calm   3.2 km/h 60% 0 mm 62 W/m2
12:34 0.2 °C -6.5 °C 1015.5 hPa Calm   3.2 km/h 60.8% 0 mm 53 W/m2
12:39 0.2 °C -6.5 °C 1015.5 hPa Calm     61% 0 mm 51 W/m2
12:44 0.1 °C -6.5 °C 1015.8 hPa Calm     61% 0 mm 40 W/m2
12:49 0.1 °C -6.6 °C 1015.5 hPa Calm     61% 0 mm 39 W/m2
12:54 0.1 °C -6.4 °C 1015.5 hPa Calm     61.3% 0 mm 39 W/m2
12:59 0.1 °C -6.3 °C 1015.5 hPa Calm     61.8% 0 mm 37 W/m2
13:04 0.2 °C -6.4 °C 1015.5 hPa Calm     61% 0 mm 40 W/m2
13:09 0.2 °C -6.4 °C 1015.5 hPa Calm     61% 0 mm 40 W/m2
13:14 0.2 °C -6.5 °C 1015.1 hPa Calm     60.8% 0 mm 32 W/m2
13:19 0.1 °C -6.2 °C 1014.8 hPa ENE 0.6 km/h 4.8 km/h 62.5% 0 mm 28 W/m2
13:24 0.1 °C -5.9 °C 1014.4 hPa ENE 0.2 km/h 4.8 km/h 64.1% 0 mm 21 W/m2
13:29 0 °C -5.6 °C 1014.8 hPa Calm   4.8 km/h 66.2% 0 mm 21 W/m2
13:34 -0.1 °C -5.2 °C 1014.8 hPa Calm   4.8 km/h 68.6% 0 mm 21 W/m2
13:39 -0.3 °C -4.8 °C 1014.8 hPa Calm     71.4% 0 mm 30 W/m2
13:44 -0.5 °C -4.5 °C 1014.4 hPa Calm     74.1% 0 mm 32 W/m2
13:49 -0.8 °C -4.2 °C 1014.4 hPa Calm     77.3% 0 mm 32 W/m2
13:54 -1.1 °C -4.2 °C 1014.4 hPa Calm     79% 0 mm 25 W/m2
13:59 -1.2 °C -4.1 °C 1014.4 hPa Calm     81.3% 0 mm 23 W/m2
14:04 -1.4 °C -3.9 °C 1014.4 hPa Calm     83% 0 mm 16 W/m2
14:09 -1.5 °C -3.8 °C 1014.4 hPa Calm     84% 0 mm 21 W/m2
14:14 -1.6 °C -3.8 °C 1014.4 hPa Calm     84.9% 0 mm 25 W/m2
14:19 -1.6 °C -3.7 °C 1014.4 hPa Calm     85.7% 0 mm 18 W/m2
14:24 -1.6 °C -3.6 °C 1014.1 hPa Calm     86.1% 0 mm 16 W/m2
14:29 -1.7 °C -3.6 °C 1014.4 hPa Calm     87% 0 mm 18 W/m2
14:34 -1.7 °C -3.6 °C 1014.4 hPa Calm     87% 0 mm 23 W/m2
14:39 -1.7 °C -3.6 °C 1014.4 hPa Calm     87% 0 mm 25 W/m2
14:44 -1.7 °C -3.4 °C 1014.4 hPa Calm     88% 0 mm 19 W/m2
14:49 -1.7 °C -3.4 °C 1014.4 hPa Calm     88% 0 mm 18 W/m2
14:54 -1.7 °C -3.4 °C 1014.4 hPa Calm     88% 0 mm 18 W/m2
14:59 -1.7 °C -3.3 °C 1014.4 hPa Calm     88.7% 0 mm 14 W/m2
15:04 -1.7 °C -3.3 °C 1014.4 hPa Calm     88.6% 0 mm 16 W/m2
15:09 -1.7 °C -3.2 °C 1014.4 hPa Calm     89% 0 mm 14 W/m2
15:14 -1.7 °C -3.2 °C 1014.4 hPa Calm     89% 0 mm 14 W/m2
15:19 -1.6 °C -3.2 °C 1014.4 hPa Calm     89% 0 mm 19 W/m2
15:24 -1.5 °C -3.1 °C 1014.4 hPa Calm     89% 0 mm 18 W/m2
15:29 -1.4 °C -2.9 °C 1014.1 hPa Calm     89.7% 0 mm 14 W/m2
15:34 -1.4 °C -2.9 °C 1014.1 hPa Calm     89.4% 0 mm 14 W/m2
15:39 -1.3 °C -2.9 °C 1013.8 hPa Calm     89% 0 mm 12 W/m2
15:44 -1.3 °C -2.9 °C 1013.8 hPa Calm     89% 0 mm 9 W/m2
15:49 -1.3 °C -2.9 °C 1014.1 hPa Calm     89% 0 mm 9 W/m2
15:54 -1.3 °C -2.8 °C 1013.8 hPa Calm     89% 0 mm 9 W/m2
15:59 -1.2 °C -2.8 °C 1013.8 hPa Calm     89% 0 mm 7 W/m2
16:04 -1.3 °C -2.8 °C 1013.4 hPa Calm     89% 0 mm 5 W/m2
16:09 -1.3 °C -2.8 °C 1013.4 hPa Calm     89% 0 mm 5 W/m2
16:14 -1.3 °C -2.8 °C 1013.4 hPa Calm     89% 0 mm 5 W/m2
16:19 -1.3 °C -2.8 °C 1013.4 hPa Calm     89% 0 mm 0 W/m2
16:24 -1.3 °C -2.8 °C 1013.4 hPa Calm     89% 0 mm 0 W/m2
16:29 -1.3 °C -2.8 °C 1013.4 hPa Calm     89% 0 mm 0 W/m2
16:34 -1.3 °C -2.8 °C 1013.1 hPa Calm     89.1% 0 mm 0 W/m2
16:39 -1.3 °C -2.9 °C 1013.1 hPa Calm     89% 0 mm 0 W/m2
16:44 -1.3 °C -2.9 °C 1013.1 hPa Calm     89.1% 0 mm 0 W/m2
16:49 -1.3 °C -2.8 °C 1013.1 hPa Calm     89.9% 0 mm 0 W/m2
16:54 -1.3 °C -2.8 °C 1013.1 hPa Calm     90% 0 mm 0 W/m2
16:59 -1.4 °C -2.8 °C 1013.1 hPa Calm   1.6 km/h 90% 0 mm 0 W/m2
17:04 -1.3 °C -2.8 °C 1013.1 hPa Calm   1.6 km/h 90% 0 mm 0 W/m2
17:09 -1.4 °C -2.8 °C 1012.8 hPa Calm     90% 0 mm 0 W/m2
17:14 -1.4 °C -2.8 °C 1012.8 hPa ENE 0.3 km/h 3.2 km/h 90% 0 mm 0 W/m2
17:19 -1.4 °C -2.9 °C 1012.8 hPa Calm   3.2 km/h 90% 0 mm 0 W/m2
17:24 -1.4 °C -2.9 °C 1013.1 hPa Calm   3.2 km/h 90% 0 mm 0 W/m2
17:29 -1.4 °C -2.9 °C 1013.1 hPa Calm   3.2 km/h 90% 0 mm 0 W/m2
17:34 -1.4 °C -2.9 °C 1013.1 hPa Calm   3.2 km/h 90% 0 mm 0 W/m2
17:39 -1.4 °C -2.9 °C 1013.1 hPa Calm     90% 0 mm 0 W/m2
17:44 -1.4 °C -2.7 °C 1013.4 hPa ENE 0.3 km/h 3.2 km/h 90.7% 0 mm 0 W/m2
17:49 -1.3 °C -2.6 °C 1013.4 hPa NNW 0.8 km/h 6.4 km/h 91% 0 mm 0 W/m2
17:54 -1.3 °C -2.6 °C 1013.4 hPa NNW 1.1 km/h 8 km/h 91% 0 mm 0 W/m2
17:59 -1.3 °C -2.6 °C 1013.4 hPa NNW 0.3 km/h 8 km/h 91% 0 mm 0 W/m2
18:04 -1.3 °C -2.6 °C 1013.4 hPa Calm   8 km/h 91% 0 mm 0 W/m2
18:09 -1.3 °C -2.6 °C 1013.4 hPa Calm     91% 0 mm 0 W/m2
18:14 -1.3 °C -2.6 °C 1013.4 hPa Calm   1.6 km/h 91% 0 mm 0 W/m2
18:19 -1.3 °C -2.6 °C 1013.4 hPa NNE 1 km/h 4.8 km/h 91% 0 mm 0 W/m2
18:24 -1.3 °C -2.6 °C 1013.4 hPa Calm   4.8 km/h 91% 0 mm 0 W/m2
18:29 -1.3 °C -2.6 °C 1013.4 hPa Calm   4.8 km/h 91% 0 mm 0 W/m2
18:34 -1.3 °C -2.6 °C 1013.4 hPa NE 1.3 km/h 6.4 km/h 91% 0 mm 0 W/m2
18:39 -1.3 °C -2.6 °C 1013.4 hPa Calm   6.4 km/h 91% 0 mm 0 W/m2
18:44 -1.4 °C -2.7 °C 1013.4 hPa NE 0.5 km/h 6.4 km/h 91% 0 mm 0 W/m2
18:49 -1.4 °C -2.7 °C 1013.4 hPa NE 0.8 km/h 6.4 km/h 91% 0 mm 0 W/m2
18:54 -1.4 °C -2.7 °C 1013.1 hPa NE 1.1 km/h 6.4 km/h 91% 0 mm 0 W/m2
18:59 -1.5 °C -2.8 °C 1013.1 hPa NE 0.2 km/h 6.4 km/h 91% 0 mm 0 W/m2
19:04 -1.5 °C -2.8 °C 1013.1 hPa Calm   6.4 km/h 91% 0 mm 0 W/m2
19:09 -1.5 °C -2.8 °C 1013.1 hPa Calm     91% 0 mm 0 W/m2
19:14 -1.5 °C -2.8 °C 1013.1 hPa Calm     91% 0 mm 0 W/m2
19:19 -1.5 °C -2.8 °C 1013.1 hPa NE 0.8 km/h 4.8 km/h 91% 0 mm 0 W/m2
19:24 -1.5 °C -2.7 °C 1013.1 hPa Calm   4.8 km/h 91.5% 0 mm 0 W/m2
19:29 -1.5 °C -2.8 °C 1013.1 hPa NE 0.2 km/h 4.8 km/h 91% 0 mm 0 W/m2
19:34 -1.5 °C -2.8 °C 1013.1 hPa Calm   4.8 km/h 91% 0 mm 0 W/m2
19:39 -1.5 °C -2.7 °C 1013.1 hPa North 0.6 km/h 6.4 km/h 91.6% 0 mm 0 W/m2
19:44 -1.5 °C -2.6 °C 1013.1 hPa North 0.5 km/h 6.4 km/h 92% 0 mm 0 W/m2
19:49 -1.5 °C -2.6 °C 1013.1 hPa NNW 1.4 km/h 9.7 km/h 92% 0 mm 0 W/m2
19:54 -1.5 °C -2.6 °C 1013.1 hPa NNW 2.7 km/h 9.7 km/h 92% 0 mm 0 W/m2
19:59 -1.5 °C -2.6 °C 1013.1 hPa North 0.6 km/h 9.7 km/h 92% 0 mm 0 W/m2
20:00 -1.5 °C -2.6 °C 1012.8 hPa NE 1.6 km/h 9.7 km/h 92% 0 mm 0 W/m2
20:09 -1.6 °C -2.7 °C 1012.8 hPa NNE 0.2 km/h 3.2 km/h 92% 0 mm 0 W/m2
20:14 -1.6 °C -2.7 °C 1012.8 hPa North 0.2 km/h 6.4 km/h 92% 0 mm 0 W/m2
20:19 -1.6 °C -2.7 °C 1012.8 hPa North 0.5 km/h 6.4 km/h 92% 0 mm 0 W/m2
20:24 -1.6 °C -2.7 °C 1012.8 hPa Calm   6.4 km/h 92% 0 mm 0 W/m2
20:29 -1.5 °C -2.7 °C 1012.8 hPa Calm   6.4 km/h 92% 0 mm 0 W/m2
20:34 -1.5 °C -2.6 °C 1012.4 hPa NNE 0.3 km/h 6.4 km/h 92% 0 mm 0 W/m2
20:39 -1.5 °C -2.6 °C 1012.4 hPa Calm   1.6 km/h 92% 0 mm 0 W/m2
20:44 -1.5 °C -2.6 °C 1012.4 hPa North 0.6 km/h 6.4 km/h 92% 0 mm 0 W/m2
20:49 -1.5 °C -2.6 °C 1012.4 hPa Calm   6.4 km/h 92% 0 mm 0 W/m2
20:54 -1.5 °C -2.6 °C 1012.4 hPa Calm   6.4 km/h 92% 0 mm 0 W/m2
20:59 -1.5 °C -2.6 °C 1012.1 hPa Calm   6.4 km/h 92% 0 mm 0 W/m2
21:04 -1.5 °C -2.6 °C 1012.1 hPa Calm   6.4 km/h 92% 0 mm 0 W/m2
21:09 -1.5 °C -2.6 °C 1012.1 hPa North 0.2 km/h 3.2 km/h 92% 0 mm 0 W/m2
21:14 -1.5 °C -2.6 °C 1012.1 hPa North 0.2 km/h 3.2 km/h 92% 0 mm 0 W/m2
21:19 -1.5 °C -2.6 °C 1012.1 hPa North 0.3 km/h 3.2 km/h 92% 0 mm 0 W/m2
21:24 -1.5 °C -2.6 °C 1012.1 hPa Calm   3.2 km/h 92% 0 mm 0 W/m2
21:29 -1.5 °C -2.6 °C 1011.7 hPa Calm   3.2 km/h 92% 0 mm 0 W/m2
21:34 -1.5 °C -2.6 °C 1011.7 hPa North 0.3 km/h 4.8 km/h 92% 0 mm 0 W/m2
21:39 -1.5 °C -2.6 °C 1011.7 hPa Calm   4.8 km/h 92% 0 mm 0 W/m2
21:44 -1.5 °C -2.6 °C 1011.4 hPa Calm   4.8 km/h 92% 0 mm 0 W/m2
21:49 -1.5 °C -2.6 °C 1011.4 hPa Calm   4.8 km/h 92% 0 mm 0 W/m2
21:54 -1.5 °C -2.6 °C 1011.4 hPa Calm   4.8 km/h 92% 0 mm 0 W/m2
21:59 -1.5 °C -2.6 °C 1011.4 hPa Calm   4.8 km/h 92% 0 mm 0 W/m2
22:04 -1.5 °C -2.6 °C 1011.4 hPa Calm   4.8 km/h 92% 0 mm 0 W/m2
22:09 -1.5 °C -2.6 °C 1011.4 hPa Calm     92% 0 mm 0 W/m2
22:14 -1.5 °C -2.6 °C 1011.4 hPa Calm     92% 0 mm 0 W/m2
22:19 -1.5 °C -2.6 °C 1011.1 hPa Calm     92% 0 mm 0 W/m2
22:24 -1.5 °C -2.6 °C 1011.1 hPa Calm     92% 0 mm 0 W/m2
22:29 -1.5 °C -2.6 °C 1011.1 hPa Calm     92% 0 mm 0 W/m2
22:34 -1.5 °C -2.6 °C 1011.1 hPa Calm     92% 0 mm 0 W/m2
22:39 -1.5 °C -2.6 °C 1011.1 hPa Calm     92% 0 mm 0 W/m2
22:44 -1.4 °C -2.6 °C 1011.1 hPa Calm     92% 0 mm 0 W/m2
22:49 -1.4 °C -2.6 °C 1011.1 hPa Calm     92% 0 mm 0 W/m2
22:54 -1.4 °C -2.5 °C 1011.1 hPa Calm     92.4% 0 mm 0 W/m2
22:59 -1.4 °C -2.4 °C 1011.1 hPa North 0.3 km/h 3.2 km/h 93% 0 mm 0 W/m2
23:04 -1.4 °C -2.4 °C 1010.7 hPa Calm     93% 0 mm 0 W/m2
23:09 -1.4 °C -2.4 °C 1011.1 hPa Calm   4.8 km/h 93% 0 mm 0 W/m2
23:14 -1.3 °C -2.3 °C 1011.1 hPa North 0.2 km/h 4.8 km/h 93% 0 mm 0 W/m2
23:19 -1.3 °C -2.3 °C 1011.1 hPa North 0.3 km/h 4.8 km/h 93% 0 mm 0 W/m2
23:24 -1.3 °C -2.3 °C 1011.1 hPa North 0.2 km/h 4.8 km/h 93% 0 mm 0 W/m2
23:29 -1.3 °C -2.3 °C 1011.1 hPa North 0.5 km/h 6.4 km/h 93% 0 mm 0 W/m2
23:34 -1.3 °C -2.3 °C 1011.1 hPa North 0.3 km/h 6.4 km/h 93% 0 mm 0 W/m2
23:39 -1.3 °C -2.3 °C 1011.1 hPa North 0.3 km/h 6.4 km/h 93% 0 mm 0 W/m2
23:44 -1.3 °C -2.3 °C 1010.7 hPa North 1.1 km/h 6.4 km/h 93% 0 mm 0 W/m2
23:49 -1.3 °C -2.3 °C 1010.7 hPa North 1 km/h 6.4 km/h 93% 0 mm 0 W/m2
23:54 -1.3 °C -2.3 °C 1010.7 hPa North 0.6 km/h 6.4 km/h 93% 0 mm 0 W/m2
23:59 -1.3 °C -2.3 °C 1010.7 hPa North 0.2 km/h 6.4 km/h 93% 0 mm 0 W/m2
Hartford County Weather
Compliments of Weather Underground - 4 mb